Ben Gurion current weather conditions

sailwx.info

Wind from 290 at 9 knots

Air temperature 26.0° C
Dewpoint 12.0° C

Last reported at 2014-Oct-22 10:20 UTC.
Time now 2014-Oct-22 12:15 UTC

Location: N 32°01' E 034°53'.
View on Google Maps.

See reports from other nearby stations

  
Tides and Currents Weather Stations Pressure Air Temp Water Temp Dewpoint Dewpoint Depression Visibility Wind Speed Wind Dir Waves Ship Positions
date/time (UTC)wind fromknots sea level pressurealtimeterstation pressurevisibilityair tempwater tempwave heightnotes
2014-Oct-22 11:20 300 11 26.0
2014-Oct-22 10:50 280 10 26.0
2014-Oct-22 10:20 290 9 26.0
2014-Oct-22 09:50 300 7 26.0
2014-Oct-22 09:20 280 7 27.0
2014-Oct-22 08:50 300 10 27.0
2014-Oct-22 08:20 28.0
2014-Oct-22 07:50 27.0
2014-Oct-22 07:20 25.0
2014-Oct-22 06:50 24.0
2014-Oct-22 06:20 22.0
2014-Oct-22 05:50 20.0
2014-Oct-22 05:20 19.0
2014-Oct-22 04:50 17.0
2014-Oct-22 04:20 16.0
2014-Oct-22 03:50 15.0
2014-Oct-22 03:20 15.0
2014-Oct-22 02:50 15.0
2014-Oct-22 02:20 16.0
2014-Oct-22 01:50 090 4 15.0
2014-Oct-22 01:20 080 4 16.0
2014-Oct-22 00:50 100 4 16.0
2014-Oct-22 00:20 16.0
2014-Oct-21 23:50 16.0
2014-Oct-21 23:20 17.0
2014-Oct-21 22:50 17.0
2014-Oct-21 22:20 18.0
2014-Oct-21 21:50 070 5 18.0
2014-Oct-21 21:20 060 4 18.0
2014-Oct-21 20:50 080 4 18.0
2014-Oct-21 20:20 070 5 18.0
2014-Oct-21 19:50 19.0
2014-Oct-21 19:20 19.0
2014-Oct-21 18:50 070 4 19.0
2014-Oct-21 18:20 090 4 20.0
2014-Oct-21 17:50 070 4 21.0
2014-Oct-21 17:20 070 5 21.0
2014-Oct-21 16:50 020 4 22.0
2014-Oct-21 16:20 010 4 22.0
2014-Oct-21 15:50 360 6 22.0
2014-Oct-21 15:20 340 8 23.0
2014-Oct-21 14:50 330 9 24.0
2014-Oct-21 14:20 310 8 24.0
2014-Oct-21 13:50 300 9 25.0
2014-Oct-21 13:20 320 9 25.0
2014-Oct-21 12:50 310 8 26.0
2014-Oct-21 12:20 320 9 26.0
2014-Oct-21 11:50 300 8 26.0
2014-Oct-21 11:20 270 7 26.0
2014-Oct-21 10:50 300 9 5.425.0
2014-Oct-21 10:20 350 4 5.426.0
2014-Oct-21 09:50 5.426.0
2014-Oct-21 09:20 5.426.0
2014-Oct-21 08:50 360 4 5.425.0
2014-Oct-21 08:20 5.426.0
2014-Oct-21 07:50 5.425.0
2014-Oct-21 07:20 5.424.0
2014-Oct-21 06:50 130 4 5.423.0
2014-Oct-21 06:20 21.0
2014-Oct-21 05:50 20.0
2014-Oct-21 05:20 18.0
2014-Oct-21 04:50 110 4 17.0
2014-Oct-21 04:20 120 4 5.417.0
2014-Oct-21 03:50 16.0
2014-Oct-21 03:20 16.0
2014-Oct-21 02:50 140 4 17.0
2014-Oct-21 02:20 140 5 17.0
2014-Oct-21 01:50 140 4 17.0
2014-Oct-21 01:20 16.0
2014-Oct-21 00:50 17.0
2014-Oct-21 00:20 16.0
2014-Oct-20 23:50 150 4 17.0
2014-Oct-20 23:20 17.0
2014-Oct-20 22:50 130 4 17.0
2014-Oct-20 22:20 120 5 18.0
2014-Oct-20 21:50 18.0
2014-Oct-20 21:20 18.0
2014-Oct-20 20:50 150 4 18.0
2014-Oct-20 20:20 090 4 19.0
2014-Oct-20 19:50 19.0
2014-Oct-20 19:20 100 4 19.0
2014-Oct-20 18:50 100 5 19.0
2014-Oct-20 18:20 050 4 19.0
2014-Oct-20 17:50 050 4 20.0
2014-Oct-20 17:20 040 4 5.421.0
2014-Oct-20 16:50 020 6 21.0
2014-Oct-20 16:20 360 6 21.0
2014-Oct-20 15:50 360 7 22.0
2014-Oct-20 15:20 360 9 22.0
2014-Oct-20 14:50 340 9 5.422.0
2014-Oct-20 14:20 330 10 5.423.0
2014-Oct-20 13:50 350 13 5.424.0
2014-Oct-20 13:20 320 11 5.423.0
2014-Oct-20 12:50 340 13 5.424.0
2014-Oct-20 12:20 320 12 5.424.0